sensor_id;sensor_type;location;lat;lon;timestamp;P1;durP1;ratioP1;P2;durP2;ratioP2
47545;SDS011;50104;52.002;4.688;2023-08-17T00:02:44;7.95;;;1.95;;
47545;SDS011;50104;52.002;4.688;2023-08-17T00:07:45;1.60;;;1.50;;
47545;SDS011;50104;52.002;4.688;2023-08-17T00:12:46;2.35;;;1.50;;
47545;SDS011;50104;52.002;4.688;2023-08-17T00:17:47;2.88;;;1.50;;
47545;SDS011;50104;52.002;4.688;2023-08-17T00:22:48;2.42;;;1.60;;
47545;SDS011;50104;52.002;4.688;2023-08-17T00:27:49;5.43;;;1.63;;
47545;SDS011;50104;52.002;4.688;2023-08-17T00:32:50;3.92;;;1.55;;
47545;SDS011;50104;52.002;4.688;2023-08-17T00:37:51;5.45;;;1.73;;
47545;SDS011;50104;52.002;4.688;2023-08-17T00:42:52;2.75;;;1.80;;
47545;SDS011;50104;52.002;4.688;2023-08-17T00:47:54;5.93;;;1.55;;
47545;SDS011;50104;52.002;4.688;2023-08-17T00:52:57;3.05;;;1.50;;
47545;SDS011;50104;52.002;4.688;2023-08-17T00:57:58;3.80;;;1.23;;
47545;SDS011;50104;52.002;4.688;2023-08-17T01:02:59;2.15;;;1.50;;
47545;SDS011;50104;52.002;4.688;2023-08-17T01:08:00;5.57;;;1.60;;
47545;SDS011;50104;52.002;4.688;2023-08-17T01:18:35;2.28;;;1.42;;
47545;SDS011;50104;52.002;4.688;2023-08-17T01:23:39;1.88;;;1.50;;
47545;SDS011;50104;52.002;4.688;2023-08-17T01:28:39;3.92;;;2.03;;
47545;SDS011;50104;52.002;4.688;2023-08-17T01:33:42;1.90;;;1.50;;
47545;SDS011;50104;52.002;4.688;2023-08-17T01:38:53;3.85;;;1.50;;
47545;SDS011;50104;52.002;4.688;2023-08-17T01:43:56;6.47;;;1.75;;
47545;SDS011;50104;52.002;4.688;2023-08-17T01:48:58;4.18;;;1.45;;
47545;SDS011;50104;52.002;4.688;2023-08-17T01:53:59;3.75;;;1.42;;
47545;SDS011;50104;52.002;4.688;2023-08-17T01:59:00;2.85;;;1.48;;
47545;SDS011;50104;52.002;4.688;2023-08-17T02:04:01;3.38;;;1.80;;
47545;SDS011;50104;52.002;4.688;2023-08-17T02:09:02;4.22;;;1.60;;
47545;SDS011;50104;52.002;4.688;2023-08-17T02:14:03;2.33;;;1.80;;
47545;SDS011;50104;52.002;4.688;2023-08-17T02:19:04;4.60;;;1.70;;
47545;SDS011;50104;52.002;4.688;2023-08-17T02:24:05;6.28;;;1.98;;
47545;SDS011;50104;52.002;4.688;2023-08-17T02:29:06;2.20;;;1.83;;
47545;SDS011;50104;52.002;4.688;2023-08-17T02:34:07;2.13;;;1.40;;
47545;SDS011;50104;52.002;4.688;2023-08-17T02:39:09;3.22;;;1.90;;
47545;SDS011;50104;52.002;4.688;2023-08-17T02:44:10;4.72;;;2.30;;
47545;SDS011;50104;52.002;4.688;2023-08-17T02:49:11;3.15;;;1.90;;
47545;SDS011;50104;52.002;4.688;2023-08-17T02:54:12;3.60;;;1.90;;
47545;SDS011;50104;52.002;4.688;2023-08-17T02:59:13;4.05;;;1.88;;
47545;SDS011;50104;52.002;4.688;2023-08-17T03:04:13;4.35;;;1.35;;
47545;SDS011;50104;52.002;4.688;2023-08-17T03:09:14;3.10;;;1.88;;
47545;SDS011;50104;52.002;4.688;2023-08-17T03:14:15;6.53;;;2.08;;
47545;SDS011;50104;52.002;4.688;2023-08-17T03:19:16;5.22;;;1.90;;
47545;SDS011;50104;52.002;4.688;2023-08-17T03:24:17;5.05;;;2.10;;
47545;SDS011;50104;52.002;4.688;2023-08-17T03:29:18;4.25;;;2.45;;
47545;SDS011;50104;52.002;4.688;2023-08-17T03:34:19;3.05;;;2.03;;
47545;SDS011;50104;52.002;4.688;2023-08-17T03:39:20;6.15;;;2.08;;
47545;SDS011;50104;52.002;4.688;2023-08-17T03:44:21;4.50;;;2.10;;
47545;SDS011;50104;52.002;4.688;2023-08-17T03:49:22;3.60;;;2.03;;
47545;SDS011;50104;52.002;4.688;2023-08-17T03:54:22;3.53;;;1.90;;
47545;SDS011;50104;52.002;4.688;2023-08-17T03:59:23;7.38;;;1.77;;
47545;SDS011;50104;52.002;4.688;2023-08-17T04:04:25;3.55;;;1.80;;
47545;SDS011;50104;52.002;4.688;2023-08-17T04:09:25;6.90;;;2.08;;
47545;SDS011;50104;52.002;4.688;2023-08-17T04:14:26;2.33;;;1.55;;
47545;SDS011;50104;52.002;4.688;2023-08-17T04:19:27;5.35;;;1.70;;
47545;SDS011;50104;52.002;4.688;2023-08-17T04:24:28;2.58;;;1.77;;
47545;SDS011;50104;52.002;4.688;2023-08-17T04:29:29;3.40;;;1.70;;
47545;SDS011;50104;52.002;4.688;2023-08-17T04:34:31;6.07;;;1.60;;
47545;SDS011;50104;52.002;4.688;2023-08-17T04:39:32;1.98;;;1.50;;
47545;SDS011;50104;52.002;4.688;2023-08-17T04:44:33;4.38;;;1.80;;
47545;SDS011;50104;52.002;4.688;2023-08-17T04:49:34;6.13;;;1.60;;
47545;SDS011;50104;52.002;4.688;2023-08-17T04:54:35;6.15;;;1.90;;
47545;SDS011;50104;52.002;4.688;2023-08-17T04:59:36;4.38;;;1.52;;
47545;SDS011;50104;52.002;4.688;2023-08-17T05:04:37;4.50;;;1.50;;
47545;SDS011;50104;52.002;4.688;2023-08-17T05:09:39;4.07;;;1.70;;
47545;SDS011;50104;52.002;4.688;2023-08-17T05:14:40;2.33;;;1.27;;
47545;SDS011;50104;52.002;4.688;2023-08-17T05:19:41;2.38;;;1.35;;
47545;SDS011;50104;52.002;4.688;2023-08-17T05:24:42;2.42;;;1.42;;
47545;SDS011;50104;52.002;4.688;2023-08-17T05:29:43;4.47;;;1.30;;
47545;SDS011;50104;52.002;4.688;2023-08-17T05:34:43;4.15;;;1.52;;
47545;SDS011;50104;52.002;4.688;2023-08-17T05:39:44;4.78;;;1.52;;
47545;SDS011;50104;52.002;4.688;2023-08-17T05:44:45;4.32;;;1.60;;
47545;SDS011;50104;52.002;4.688;2023-08-17T05:49:46;4.60;;;1.10;;
47545;SDS011;50104;52.002;4.688;2023-08-17T05:54:47;5.05;;;1.50;;
47545;SDS011;50104;52.002;4.688;2023-08-17T05:59:48;3.20;;;1.65;;
47545;SDS011;50104;52.002;4.688;2023-08-17T06:04:49;2.35;;;1.33;;
47545;SDS011;50104;52.002;4.688;2023-08-17T06:09:50;1.52;;;1.40;;
47545;SDS011;50104;52.002;4.688;2023-08-17T06:14:51;5.28;;;1.60;;
47545;SDS011;50104;52.002;4.688;2023-08-17T06:19:52;4.82;;;1.50;;
47545;SDS011;50104;52.002;4.688;2023-08-17T06:24:53;3.88;;;2.33;;
47545;SDS011;50104;52.002;4.688;2023-08-17T06:29:53;3.83;;;1.40;;
47545;SDS011;50104;52.002;4.688;2023-08-17T06:34:54;5.88;;;1.70;;
47545;SDS011;50104;52.002;4.688;2023-08-17T06:39:55;3.90;;;1.70;;
47545;SDS011;50104;52.002;4.688;2023-08-17T06:44:57;5.47;;;1.35;;
47545;SDS011;50104;52.002;4.688;2023-08-17T06:49:58;2.75;;;1.52;;
47545;SDS011;50104;52.002;4.688;2023-08-17T06:54:59;5.95;;;1.58;;
47545;SDS011;50104;52.002;4.688;2023-08-17T07:00:00;4.00;;;1.92;;
47545;SDS011;50104;52.002;4.688;2023-08-17T07:05:01;7.25;;;2.25;;
47545;SDS011;50104;52.002;4.688;2023-08-17T07:10:03;5.10;;;1.80;;
47545;SDS011;50104;52.002;4.688;2023-08-17T07:15:05;5.20;;;1.70;;
47545;SDS011;50104;52.002;4.688;2023-08-17T07:20:07;5.55;;;1.65;;
47545;SDS011;50104;52.002;4.688;2023-08-17T07:25:09;5.57;;;1.90;;
47545;SDS011;50104;52.002;4.688;2023-08-17T07:30:11;5.50;;;2.40;;
47545;SDS011;50104;52.002;4.688;2023-08-17T07:35:12;4.72;;;1.77;;
47545;SDS011;50104;52.002;4.688;2023-08-17T07:40:13;4.28;;;1.65;;
47545;SDS011;50104;52.002;4.688;2023-08-17T07:45:13;6.10;;;1.83;;
47545;SDS011;50104;52.002;4.688;2023-08-17T07:50:15;5.97;;;1.73;;
47545;SDS011;50104;52.002;4.688;2023-08-17T07:55:15;2.95;;;1.50;;
47545;SDS011;50104;52.002;4.688;2023-08-17T08:00:16;3.58;;;1.67;;
47545;SDS011;50104;52.002;4.688;2023-08-17T08:05:17;4.00;;;1.83;;
47545;SDS011;50104;52.002;4.688;2023-08-17T08:10:18;5.95;;;2.08;;
47545;SDS011;50104;52.002;4.688;2023-08-17T08:15:19;4.85;;;1.92;;
47545;SDS011;50104;52.002;4.688;2023-08-17T08:20:20;6.68;;;1.42;;
47545;SDS011;50104;52.002;4.688;2023-08-17T08:25:22;4.25;;;1.90;;
47545;SDS011;50104;52.002;4.688;2023-08-17T08:30:23;4.47;;;2.13;;
47545;SDS011;50104;52.002;4.688;2023-08-17T08:35:23;4.13;;;1.70;;
47545;SDS011;50104;52.002;4.688;2023-08-17T08:40:26;5.47;;;1.40;;
47545;SDS011;50104;52.002;4.688;2023-08-17T08:45:30;6.28;;;1.30;;
47545;SDS011;50104;52.002;4.688;2023-08-17T08:50:31;5.50;;;2.58;;
47545;SDS011;50104;52.002;4.688;2023-08-17T08:55:37;1.58;;;1.42;;
47545;SDS011;50104;52.002;4.688;2023-08-17T09:00:39;3.78;;;1.48;;
47545;SDS011;50104;52.002;4.688;2023-08-17T09:05:41;4.80;;;1.65;;
47545;SDS011;50104;52.002;4.688;2023-08-17T09:10:45;2.78;;;1.23;;
47545;SDS011;50104;52.002;4.688;2023-08-17T09:15:46;4.25;;;1.60;;
47545;SDS011;50104;52.002;4.688;2023-08-17T09:20:47;3.65;;;1.60;;
47545;SDS011;50104;52.002;4.688;2023-08-17T09:25:51;4.72;;;1.48;;
47545;SDS011;50104;52.002;4.688;2023-08-17T09:30:59;5.95;;;2.08;;
47545;SDS011;50104;52.002;4.688;2023-08-17T09:36:02;5.75;;;1.52;;
47545;SDS011;50104;52.002;4.688;2023-08-17T09:41:03;4.00;;;2.00;;
47545;SDS011;50104;52.002;4.688;2023-08-17T09:46:06;5.43;;;1.90;;
47545;SDS011;50104;52.002;4.688;2023-08-17T09:51:08;2.45;;;1.80;;
47545;SDS011;50104;52.002;4.688;2023-08-17T09:56:09;5.43;;;1.50;;
47545;SDS011;50104;52.002;4.688;2023-08-17T10:01:11;6.85;;;1.90;;
47545;SDS011;50104;52.002;4.688;2023-08-17T10:06:13;4.75;;;1.73;;
47545;SDS011;50104;52.002;4.688;2023-08-17T10:11:21;3.33;;;1.80;;
47545;SDS011;50104;52.002;4.688;2023-08-17T10:16:24;5.28;;;2.03;;
47545;SDS011;50104;52.002;4.688;2023-08-17T10:26:38;6.63;;;1.45;;
47545;SDS011;50104;52.002;4.688;2023-08-17T10:31:39;3.63;;;1.60;;
47545;SDS011;50104;52.002;4.688;2023-08-17T10:36:47;3.20;;;2.28;;
47545;SDS011;50104;52.002;4.688;2023-08-17T10:41:50;2.63;;;1.58;;
47545;SDS011;50104;52.002;4.688;2023-08-17T10:46:52;2.92;;;1.90;;
47545;SDS011;50104;52.002;4.688;2023-08-17T10:51:59;3.65;;;1.60;;
47545;SDS011;50104;52.002;4.688;2023-08-17T11:02:33;3.65;;;2.22;;
47545;SDS011;50104;52.002;4.688;2023-08-17T11:07:41;3.47;;;1.52;;
47545;SDS011;50104;52.002;4.688;2023-08-17T11:12:45;2.28;;;1.52;;
47545;SDS011;50104;52.002;4.688;2023-08-17T11:17:46;6.60;;;1.80;;
47545;SDS011;50104;52.002;4.688;2023-08-17T11:22:47;6.88;;;1.50;;
47545;SDS011;50104;52.002;4.688;2023-08-17T11:27:47;4.35;;;1.65;;
47545;SDS011;50104;52.002;4.688;2023-08-17T11:32:49;5.55;;;1.77;;
47545;SDS011;50104;52.002;4.688;2023-08-17T11:37:51;5.88;;;1.63;;
47545;SDS011;50104;52.002;4.688;2023-08-17T11:42:52;4.65;;;1.65;;
47545;SDS011;50104;52.002;4.688;2023-08-17T11:47:53;4.03;;;2.00;;
47545;SDS011;50104;52.002;4.688;2023-08-17T11:52:54;5.00;;;1.92;;
47545;SDS011;50104;52.002;4.688;2023-08-17T11:57:55;5.45;;;2.47;;
47545;SDS011;50104;52.002;4.688;2023-08-17T12:02:56;8.32;;;2.22;;
47545;SDS011;50104;52.002;4.688;2023-08-17T12:07:56;5.60;;;2.22;;
47545;SDS011;50104;52.002;4.688;2023-08-17T12:13:00;4.45;;;2.22;;
47545;SDS011;50104;52.002;4.688;2023-08-17T12:18:02;3.83;;;1.80;;
47545;SDS011;50104;52.002;4.688;2023-08-17T12:23:04;2.58;;;1.90;;
47545;SDS011;50104;52.002;4.688;2023-08-17T12:28:05;3.05;;;1.83;;
47545;SDS011;50104;52.002;4.688;2023-08-17T12:33:06;4.88;;;1.92;;
47545;SDS011;50104;52.002;4.688;2023-08-17T12:38:07;5.55;;;1.92;;
47545;SDS011;50104;52.002;4.688;2023-08-17T12:43:08;12.57;;;2.35;;
47545;SDS011;50104;52.002;4.688;2023-08-17T12:48:09;4.40;;;2.58;;
47545;SDS011;50104;52.002;4.688;2023-08-17T12:53:09;4.00;;;2.70;;
47545;SDS011;50104;52.002;4.688;2023-08-17T12:58:10;2.95;;;2.20;;
47545;SDS011;50104;52.002;4.688;2023-08-17T13:03:11;4.22;;;2.35;;
47545;SDS011;50104;52.002;4.688;2023-08-17T13:08:12;5.35;;;2.67;;
47545;SDS011;50104;52.002;4.688;2023-08-17T13:13:13;4.05;;;2.13;;
47545;SDS011;50104;52.002;4.688;2023-08-17T13:18:13;3.60;;;2.80;;
47545;SDS011;50104;52.002;4.688;2023-08-17T13:23:14;4.22;;;2.67;;
47545;SDS011;50104;52.002;4.688;2023-08-17T13:28:15;5.20;;;2.17;;
47545;SDS011;50104;52.002;4.688;2023-08-17T13:33:16;3.83;;;2.55;;
47545;SDS011;50104;52.002;4.688;2023-08-17T13:38:17;11.50;;;3.10;;
47545;SDS011;50104;52.002;4.688;2023-08-17T13:43:18;4.78;;;2.50;;
47545;SDS011;50104;52.002;4.688;2023-08-17T13:48:18;3.15;;;2.42;;
47545;SDS011;50104;52.002;4.688;2023-08-17T13:53:19;4.63;;;2.50;;
47545;SDS011;50104;52.002;4.688;2023-08-17T13:58:20;4.10;;;2.70;;
47545;SDS011;50104;52.002;4.688;2023-08-17T14:03:22;5.53;;;3.08;;
47545;SDS011;50104;52.002;4.688;2023-08-17T14:08:23;4.13;;;3.08;;
47545;SDS011;50104;52.002;4.688;2023-08-17T14:13:24;7.90;;;3.80;;
47545;SDS011;50104;52.002;4.688;2023-08-17T14:18:26;6.95;;;3.80;;
47545;SDS011;50104;52.002;4.688;2023-08-17T14:23:27;5.78;;;2.80;;
47545;SDS011;50104;52.002;4.688;2023-08-17T14:28:28;4.05;;;3.10;;
47545;SDS011;50104;52.002;4.688;2023-08-17T14:33:28;4.78;;;2.92;;
47545;SDS011;50104;52.002;4.688;2023-08-17T14:38:29;6.30;;;3.30;;
47545;SDS011;50104;52.002;4.688;2023-08-17T14:43:30;4.25;;;2.70;;
47545;SDS011;50104;52.002;4.688;2023-08-17T14:48:31;6.82;;;3.00;;
47545;SDS011;50104;52.002;4.688;2023-08-17T14:53:32;4.55;;;2.70;;
47545;SDS011;50104;52.002;4.688;2023-08-17T14:58:33;4.97;;;2.92;;
47545;SDS011;50104;52.002;4.688;2023-08-17T15:03:33;3.63;;;2.75;;
47545;SDS011;50104;52.002;4.688;2023-08-17T15:08:34;5.68;;;3.15;;
47545;SDS011;50104;52.002;4.688;2023-08-17T15:13:35;27.25;;;4.10;;
47545;SDS011;50104;52.002;4.688;2023-08-17T15:18:36;5.93;;;3.45;;
47545;SDS011;50104;52.002;4.688;2023-08-17T15:23:37;20.42;;;3.92;;
47545;SDS011;50104;52.002;4.688;2023-08-17T15:28:39;16.15;;;4.57;;
47545;SDS011;50104;52.002;4.688;2023-08-17T15:33:41;5.38;;;3.33;;
47545;SDS011;50104;52.002;4.688;2023-08-17T15:38:42;10.77;;;3.58;;
47545;SDS011;50104;52.002;4.688;2023-08-17T15:43:43;5.50;;;3.17;;
47545;SDS011;50104;52.002;4.688;2023-08-17T15:48:44;6.25;;;3.17;;
47545;SDS011;50104;52.002;4.688;2023-08-17T15:53:44;4.78;;;3.58;;
47545;SDS011;50104;52.002;4.688;2023-08-17T15:58:45;5.75;;;3.42;;
47545;SDS011;50104;52.002;4.688;2023-08-17T16:03:46;4.53;;;2.92;;
47545;SDS011;50104;52.002;4.688;2023-08-17T16:08:47;3.65;;;3.08;;
47545;SDS011;50104;52.002;4.688;2023-08-17T16:13:48;4.70;;;3.60;;
47545;SDS011;50104;52.002;4.688;2023-08-17T16:18:49;4.22;;;3.10;;
47545;SDS011;50104;52.002;4.688;2023-08-17T16:23:49;4.53;;;3.35;;
47545;SDS011;50104;52.002;4.688;2023-08-17T16:28:50;6.30;;;4.07;;
47545;SDS011;50104;52.002;4.688;2023-08-17T16:33:51;13.57;;;6.50;;
47545;SDS011;50104;52.002;4.688;2023-08-17T16:38:52;7.32;;;4.68;;
47545;SDS011;50104;52.002;4.688;2023-08-17T16:43:53;8.90;;;3.97;;
47545;SDS011;50104;52.002;4.688;2023-08-17T16:48:53;5.43;;;3.75;;
47545;SDS011;50104;52.002;4.688;2023-08-17T16:53:54;4.03;;;3.63;;
47545;SDS011;50104;52.002;4.688;2023-08-17T16:58:55;5.82;;;3.90;;
47545;SDS011;50104;52.002;4.688;2023-08-17T17:03:56;4.47;;;4.03;;
47545;SDS011;50104;52.002;4.688;2023-08-17T17:08:56;5.30;;;4.30;;
47545;SDS011;50104;52.002;4.688;2023-08-17T17:13:57;5.10;;;3.65;;
47545;SDS011;50104;52.002;4.688;2023-08-17T17:18:58;6.22;;;4.28;;
47545;SDS011;50104;52.002;4.688;2023-08-17T17:23:59;4.32;;;3.92;;
47545;SDS011;50104;52.002;4.688;2023-08-17T17:29:00;6.53;;;4.15;;
47545;SDS011;50104;52.002;4.688;2023-08-17T17:34:02;4.22;;;3.40;;
47545;SDS011;50104;52.002;4.688;2023-08-17T17:39:04;4.30;;;3.75;;
47545;SDS011;50104;52.002;4.688;2023-08-17T17:44:05;10.38;;;4.38;;
47545;SDS011;50104;52.002;4.688;2023-08-17T17:49:06;4.88;;;4.03;;
47545;SDS011;50104;52.002;4.688;2023-08-17T17:54:07;5.28;;;3.92;;
47545;SDS011;50104;52.002;4.688;2023-08-17T21:06:30;9.45;;;8.45;;
47545;SDS011;50104;52.002;4.688;2023-08-17T21:11:31;9.57;;;8.50;;
47545;SDS011;50104;52.002;4.688;2023-08-17T21:16:32;10.15;;;9.13;;
47545;SDS011;50104;52.002;4.688;2023-08-17T21:21:33;11.05;;;9.02;;
47545;SDS011;50104;52.002;4.688;2023-08-17T21:26:34;11.77;;;9.32;;
47545;SDS011;50104;52.002;4.688;2023-08-17T21:31:35;9.93;;;8.82;;
47545;SDS011;50104;52.002;4.688;2023-08-17T21:36:35;10.85;;;9.75;;
47545;SDS011;50104;52.002;4.688;2023-08-17T21:41:36;11.05;;;9.95;;
47545;SDS011;50104;52.002;4.688;2023-08-17T21:46:37;14.77;;;10.90;;
47545;SDS011;50104;52.002;4.688;2023-08-17T21:51:39;11.95;;;10.70;;
47545;SDS011;50104;52.002;4.688;2023-08-17T21:56:40;17.02;;;12.20;;
47545;SDS011;50104;52.002;4.688;2023-08-17T22:01:42;16.20;;;11.10;;
47545;SDS011;50104;52.002;4.688;2023-08-17T22:06:42;13.10;;;10.52;;
47545;SDS011;50104;52.002;4.688;2023-08-17T22:11:43;15.00;;;11.75;;
47545;SDS011;50104;52.002;4.688;2023-08-17T22:16:44;12.55;;;11.23;;
47545;SDS011;50104;52.002;4.688;2023-08-17T22:21:45;12.70;;;11.40;;
47545;SDS011;50104;52.002;4.688;2023-08-17T22:26:45;15.40;;;13.00;;
47545;SDS011;50104;52.002;4.688;2023-08-17T22:31:46;12.65;;;11.20;;
47545;SDS011;50104;52.002;4.688;2023-08-17T22:36:47;12.10;;;10.88;;
47545;SDS011;50104;52.002;4.688;2023-08-17T22:41:48;13.15;;;11.38;;
47545;SDS011;50104;52.002;4.688;2023-08-17T22:46:49;13.00;;;11.27;;
47545;SDS011;50104;52.002;4.688;2023-08-17T22:51:50;14.15;;;11.65;;
47545;SDS011;50104;52.002;4.688;2023-08-17T22:56:50;12.13;;;10.88;;
47545;SDS011;50104;52.002;4.688;2023-08-17T23:01:53;13.27;;;10.07;;
47545;SDS011;50104;52.002;4.688;2023-08-17T23:06:54;12.52;;;10.00;;
47545;SDS011;50104;52.002;4.688;2023-08-17T23:11:55;11.40;;;9.57;;
47545;SDS011;50104;52.002;4.688;2023-08-17T23:16:56;11.40;;;10.20;;
47545;SDS011;50104;52.002;4.688;2023-08-17T23:21:57;12.43;;;10.13;;
47545;SDS011;50104;52.002;4.688;2023-08-17T23:26:58;11.45;;;10.35;;
47545;SDS011;50104;52.002;4.688;2023-08-17T23:31:59;12.95;;;9.27;;
47545;SDS011;50104;52.002;4.688;2023-08-17T23:37:00;10.60;;;9.50;;
47545;SDS011;50104;52.002;4.688;2023-08-17T23:42:01;12.40;;;9.35;;
47545;SDS011;50104;52.002;4.688;2023-08-17T23:47:01;10.13;;;9.05;;
47545;SDS011;50104;52.002;4.688;2023-08-17T23:52:02;11.95;;;9.77;;
47545;SDS011;50104;52.002;4.688;2023-08-17T23:57:03;9.82;;;8.70;;
